Time;durP1;ratioP1;P1;durP2;ratioP2;P2;SDS_P1;SDS_P2;PMS_P1;PMS_P2;Temp;Humidity;BMP_temperature;BMP_pressure;BME280_temperature;BME280_humidity;BME280_pressure;Samples;Min_cycle;Max_cycle;Signal;HPM_P1;HPM_P2
2021/10/15 00:00:58;;;;;;;18.95;12.32;;;230.40;2252.80;;;;;;5094554;28;20395;-78
2021/10/15 00:03:24;;;;;;;25.15;14.25;;;205.70;2252.80;;;;;;5093479;28;20430;-80
2021/10/15 00:05:50;;;;;;;45.33;24.83;;;205.70;2252.80;;;;;;5093125;28;20035;-79
2021/10/15 00:08:15;;;;;;;28.88;14.52;;;230.40;2252.80;;;;;;5093088;28;20081;-80
2021/10/15 00:10:41;;;;;;;22.40;12.70;;;205.70;2252.80;;;;;;5093376;28;20031;-80
2021/10/15 00:13:07;;;;;;;19.42;12.60;;;230.40;2252.80;;;;;;5093047;28;20028;-79
2021/10/15 00:15:33;;;;;;;11.55;7.90;;;230.50;2252.80;;;;;;5093348;28;20020;-77
2021/10/15 00:17:59;;;;;;;10.40;6.90;;;230.40;2252.80;;;;;;5094579;28;20379;-77
2021/10/15 00:20:25;;;;;;;11.80;7.78;;;205.70;2252.80;;;;;;5092880;28;20024;-78
2021/10/15 00:22:50;;;;;;;14.73;9.15;;;205.70;2252.80;;;;;;5094188;28;20078;-77
2021/10/15 00:25:16;;;;;;;17.33;11.43;;;230.40;2252.80;;;;;;5093057;28;20036;-76
2021/10/15 00:27:42;;;;;;;18.10;11.98;;;205.70;2252.80;;;;;;5092670;28;20030;-76
2021/10/15 00:30:08;;;;;;;15.20;9.32;;;205.70;2252.80;;;;;;5092918;28;20055;-78
2021/10/15 00:32:34;;;;;;;11.40;7.55;;;230.40;2252.80;;;;;;5092852;28;20074;-77
2021/10/15 00:35:00;;;;;;;11.23;6.85;;;205.60;2252.80;;;;;;5092330;28;20056;-76
2021/10/15 00:37:26;;;;;;;10.27;6.65;;;205.70;2252.80;;;;;;5092798;28;20032;-78
2021/10/15 00:39:52;;;;;;;15.15;8.63;;;205.70;2252.80;;;;;;5092835;28;20032;-77
2021/10/15 00:42:17;;;;;;;13.60;7.97;;;230.40;2252.80;;;;;;5092503;28;20031;-77
2021/10/15 00:44:43;;;;;;;11.98;7.78;;;230.40;2252.80;;;;;;5092800;28;20024;-76
2021/10/15 00:47:09;;;;;;;9.35;5.82;;;230.40;2252.80;;;;;;5094054;28;20036;-78
2021/10/15 00:49:35;;;;;;;10.85;6.38;;;230.40;2252.80;;;;;;5093650;28;20020;-77
2021/10/15 00:52:01;;;;;;;37.13;18.27;;;230.40;2252.80;;;;;;5092664;28;20021;-79
2021/10/15 00:54:28;;;;;;;42.75;21.42;;;205.70;2252.80;;;;;;5092534;28;20027;-79
2021/10/15 00:56:54;;;;;;;30.95;17.17;;;230.40;2252.80;;;;;;5092245;28;20423;-79
2021/10/15 00:59:20;;;;;;;30.10;14.95;;;230.40;2252.80;;;;;;5092502;28;20028;-77
2021/10/15 01:01:46;;;;;;;67.75;30.17;;;230.40;2252.80;;;;;;5092529;28;20027;-78
2021/10/15 01:04:13;;;;;;;84.57;39.83;;;230.40;2252.80;;;;;;5092124;28;20031;-80
2021/10/15 01:06:39;;;;;;;43.63;23.20;;;230.40;2252.80;;;;;;5092353;28;20024;-76
2021/10/15 01:09:06;;;;;;;27.33;15.10;;;230.40;2252.80;;;;;;5092207;28;20024;-76
2021/10/15 01:11:32;;;;;;;11.18;6.40;;;230.40;2252.80;;;;;;5092479;28;20028;-77
2021/10/15 01:13:59;;;;;;;9.77;5.50;;;205.70;2252.80;;;;;;5092297;28;20028;-78
2021/10/15 01:16:30;;;;;;;10.98;6.53;;;230.40;2252.80;;;;;;5093828;28;20063;-79
2021/10/15 01:18:58;;;;;;;8.43;5.28;;;230.40;2252.80;;;;;;5096521;28;20028;-79
2021/10/15 01:21:25;;;;;;;7.38;5.70;;;205.70;2252.80;;;;;;5096530;28;20028;-77
2021/10/15 01:23:51;;;;;;;9.25;6.60;;;230.40;2252.80;;;;;;5096156;28;20435;-79
2021/10/15 01:26:17;;;;;;;9.63;5.20;;;230.40;2252.80;;;;;;5096494;28;20055;-79
2021/10/15 01:28:43;;;;;;;7.63;4.75;;;205.70;2252.80;;;;;;5096394;28;20118;-79
2021/10/15 01:31:09;;;;;;;9.45;6.10;;;205.70;2252.80;;;;;;5096073;28;20460;-77
2021/10/15 01:33:36;;;;;;;8.13;5.22;;;230.40;2252.80;;;;;;5097405;28;20028;-77
2021/10/15 01:36:03;;;;;;;10.15;6.15;;;230.40;2252.80;;;;;;5096401;28;20024;-82
2021/10/15 01:38:29;;;;;;;13.88;8.93;;;230.40;2252.80;;;;;;5095910;28;20029;-80
2021/10/15 01:40:55;;;;;;;10.27;6.85;;;230.40;2252.80;;;;;;5097483;28;20032;-78
2021/10/15 01:43:23;;;;;;;7.85;5.05;;;230.40;2252.80;;;;;;5096112;28;20408;-77
2021/10/15 01:45:49;;;;;;;14.32;10.25;;;205.70;2252.80;;;;;;5096859;28;20024;-77
2021/10/15 01:48:15;;;;;;;13.32;7.63;;;230.40;2252.80;;;;;;5097293;28;20134;-79
2021/10/15 01:50:41;;;;;;;10.90;8.43;;;230.40;2252.80;;;;;;5096009;28;20389;-78
2021/10/15 01:53:07;;;;;;;11.15;7.45;;;205.70;2252.80;;;;;;5095655;28;20107;-78
2021/10/15 01:55:32;;;;;;;10.77;6.95;;;205.70;2252.80;;;;;;5095946;28;20023;-78
2021/10/15 01:57:58;;;;;;;18.38;13.43;;;205.70;2252.80;;;;;;5095557;28;20126;-76
2021/10/15 02:00:24;;;;;;;18.88;14.65;;;205.70;2252.80;;;;;;5095746;28;20032;-76
2021/10/15 02:02:50;;;;;;;10.88;7.82;;;205.70;2252.80;;;;;;5095734;28;20486;-76
2021/10/15 02:05:20;;;;;;;12.13;8.52;;;230.40;2252.80;;;;;;5096687;28;20111;-75
2021/10/15 02:07:47;;;;;;;13.60;10.05;;;230.40;2252.80;;;;;;5096951;28;20067;-75
2021/10/15 02:10:14;;;;;;;14.60;9.90;;;230.40;2252.80;;;;;;5095683;28;20028;-79
2021/10/15 02:12:41;;;;;;;11.23;8.50;;;205.70;2252.80;;;;;;5096711;28;20061;-79
2021/10/15 02:15:09;;;;;;;12.75;8.52;;;230.40;2252.80;;;;;;5095563;28;20035;-76
2021/10/15 02:17:35;;;;;;;21.92;18.33;;;230.50;2252.80;;;;;;5095140;28;20119;-78
2021/10/15 02:20:03;;;;;;;22.70;14.73;;;230.50;2252.80;;;;;;5095140;28;20073;-76
2021/10/15 02:22:29;;;;;;;34.92;27.00;;;230.50;2252.80;;;;;;5095260;28;20031;-76
2021/10/15 02:24:54;;;;;;;33.22;25.58;;;230.40;2252.80;;;;;;5095441;28;20470;-79
2021/10/15 02:27:20;;;;;;;27.65;20.45;;;230.40;2252.80;;;;;;5094854;28;20032;-76
2021/10/15 02:29:46;;;;;;;25.95;18.42;;;230.40;2252.80;;;;;;5095214;28;20031;-77
2021/10/15 02:32:12;;;;;;;27.20;18.30;;;230.40;2252.80;;;;;;5095277;28;20468;-77
2021/10/15 02:34:38;;;;;;;21.55;15.65;;;230.40;2252.80;;;;;;5094740;28;20048;-80
2021/10/15 02:37:03;;;;;;;18.63;13.07;;;205.70;2252.80;;;;;;5096013;28;20034;-78
2021/10/15 02:39:29;;;;;;;22.38;14.85;;;205.70;2252.80;;;;;;5095117;28;20392;-82
2021/10/15 02:41:55;;;;;;;22.10;15.88;;;230.40;2252.80;;;;;;5094657;28;20048;-79
2021/10/15 02:44:21;;;;;;;21.42;15.18;;;205.60;2252.80;;;;;;5095011;28;20028;-79
2021/10/15 02:46:47;;;;;;;19.15;12.48;;;205.70;2252.80;;;;;;5094919;28;20419;-78
2021/10/15 02:49:13;;;;;;;18.83;12.18;;;205.70;2252.80;;;;;;5094668;28;20020;-79
2021/10/15 02:51:38;;;;;;;12.10;8.95;;;205.70;2252.80;;;;;;5094846;28;20438;-76
2021/10/15 02:54:05;;;;;;;11.40;8.45;;;205.70;2252.80;;;;;;5094511;28;20122;-78
2021/10/15 02:56:30;;;;;;;9.23;7.38;;;205.60;2252.80;;;;;;5096037;28;20456;-78
2021/10/15 02:58:57;;;;;;;9.23;7.03;;;205.60;2252.80;;;;;;5095791;28;20107;-79
2021/10/15 03:01:22;;;;;;;9.43;7.07;;;205.60;2252.80;;;;;;5094392;28;20051;-76
2021/10/15 03:03:48;;;;;;;9.52;6.82;;;205.70;2252.80;;;;;;5094719;28;20070;-78
2021/10/15 03:06:15;;;;;;;10.48;7.50;;;230.40;2252.80;;;;;;5094463;28;20031;-80
2021/10/15 03:08:41;;;;;;;10.90;7.30;;;230.40;2252.80;;;;;;5094169;28;20035;-80
2021/10/15 03:11:07;;;;;;;12.25;9.13;;;230.40;2252.80;;;;;;5094487;28;20020;-77
2021/10/15 03:13:33;;;;;;;14.07;11.43;;;205.70;2252.80;;;;;;5094455;28;20024;-77
2021/10/15 03:15:59;;;;;;;12.43;9.48;;;230.40;2252.80;;;;;;5094204;28;20114;-78
2021/10/15 03:18:25;;;;;;;15.30;11.52;;;230.40;2252.80;;;;;;5094271;28;20123;-76
2021/10/15 03:20:51;;;;;;;12.07;8.63;;;230.50;2252.80;;;;;;5094283;28;20430;-78
2021/10/15 03:23:17;;;;;;;11.52;7.72;;;230.40;2252.80;;;;;;5093933;28;20024;-79
2021/10/15 03:25:43;;;;;;;17.42;10.48;;;230.40;2252.80;;;;;;5094178;28;20067;-79
2021/10/15 03:28:09;;;;;;;15.27;9.88;;;205.70;2252.80;;;;;;5095086;28;20035;-76
2021/10/15 03:30:35;;;;;;;15.85;8.70;;;230.40;2252.80;;;;;;5093800;28;20029;-81
2021/10/15 03:33:03;;;;;;;13.82;8.35;;;230.40;2252.80;;;;;;5094111;28;20421;-78
2021/10/15 03:35:29;;;;;;;7.72;4.82;;;230.40;2252.80;;;;;;5093873;28;20040;-78
2021/10/15 03:37:55;;;;;;;7.97;5.22;;;230.40;2252.80;;;;;;5093583;28;20039;-80
2021/10/15 03:40:21;;;;;;;8.07;5.65;;;230.40;2252.80;;;;;;5093304;28;20047;-78
2021/10/15 03:42:46;;;;;;;11.88;9.18;;;230.40;2252.80;;;;;;5095075;28;20039;-77
2021/10/15 03:45:12;;;;;;;10.63;8.52;;;230.40;2252.80;;;;;;5093542;28;20020;-75
2021/10/15 03:47:39;;;;;;;9.98;7.55;;;230.40;2252.80;;;;;;5093659;28;20032;-79
2021/10/15 03:50:07;;;;;;;9.23;7.63;;;230.40;2252.80;;;;;;5093469;28;20127;-76
2021/10/15 03:52:34;;;;;;;8.10;6.90;;;230.50;2252.80;;;;;;5093689;28;20023;-78
2021/10/15 03:54:59;;;;;;;8.75;6.88;;;205.70;2252.80;;;;;;5093755;28;20127;-79
2021/10/15 03:57:25;;;;;;;9.32;8.07;;;205.70;2252.80;;;;;;5093179;28;20110;-76
2021/10/15 03:59:51;;;;;;;11.60;9.60;;;230.40;2252.80;;;;;;5095092;28;20035;-79
2021/10/15 04:02:17;;;;;;;12.13;9.32;;;205.70;2252.80;;;;;;5093495;28;20491;-79
2021/10/15 04:04:43;;;;;;;12.15;9.10;;;230.40;2252.80;;;;;;5093142;28;20020;-79
2021/10/15 04:07:08;;;;;;;14.23;10.93;;;205.60;2252.80;;;;;;5093370;28;20118;-79
2021/10/15 04:09:34;;;;;;;15.35;11.02;;;230.40;2252.80;;;;;;5093271;28;20055;-79
2021/10/15 04:12:00;;;;;;;14.85;12.63;;;230.40;2252.80;;;;;;5094030;28;20032;-79
2021/10/15 04:14:26;;;;;;;34.72;30.92;;;230.50;2252.80;;;;;;5093311;28;20487;-77
2021/10/15 04:16:52;;;;;;;57.70;50.28;;;230.50;2252.80;;;;;;5093184;28;20387;-80
2021/10/15 04:19:18;;;;;;;34.25;30.55;;;230.40;2252.80;;;;;;5092405;28;20039;-77
2021/10/15 04:21:44;;;;;;;36.17;22.38;;;230.40;2252.80;;;;;;5094315;28;20024;-77
2021/10/15 04:24:10;;;;;;;37.58;25.33;;;230.40;2252.80;;;;;;5093126;28;20147;-76
2021/10/15 04:26:36;;;;;;;52.20;33.13;;;230.50;2252.80;;;;;;5093114;28;20110;-79
2021/10/15 04:29:02;;;;;;;52.75;32.85;;;205.70;2252.80;;;;;;5093202;28;20054;-80
2021/10/15 04:31:28;;;;;;;74.38;49.55;;;205.60;2252.80;;;;;;5092778;28;20032;-76
2021/10/15 04:33:54;;;;;;;67.20;43.40;;;205.60;2252.80;;;;;;5092456;28;20036;-78
2021/10/15 04:36:20;;;;;;;36.20;24.45;;;230.40;2252.80;;;;;;5093068;28;20056;-78
2021/10/15 04:38:46;;;;;;;16.67;13.23;;;230.40;2252.80;;;;;;5092880;28;20478;-77
2021/10/15 04:41:12;;;;;;;20.33;14.32;;;230.40;2252.80;;;;;;5093832;28;20055;-77
2021/10/15 04:43:38;;;;;;;17.05;13.25;;;230.50;2252.80;;;;;;5092849;28;20417;-78
2021/10/15 04:46:04;;;;;;;22.05;16.20;;;230.40;2252.80;;;;;;5092393;28;20085;-76
2021/10/15 04:48:30;;;;;;;25.30;19.73;;;230.40;2252.80;;;;;;5094071;28;20028;-79
2021/10/15 04:50:56;;;;;;;32.22;23.95;;;230.40;2252.80;;;;;;5092184;28;20107;-77
2021/10/15 04:53:22;;;;;;;39.63;31.70;;;230.40;2252.80;;;;;;5092156;28;20047;-78
2021/10/15 04:55:48;;;;;;;34.40;27.48;;;205.70;2252.80;;;;;;5094041;28;20024;-78
2021/10/15 04:58:14;;;;;;;33.25;26.13;;;230.40;2252.80;;;;;;5092473;28;20384;-79
2021/10/15 05:00:40;;;;;;;31.52;24.17;;;230.40;2252.80;;;;;;5092475;28;20036;-77
2021/10/15 05:03:06;;;;;;;48.50;32.88;;;230.60;2252.80;;;;;;5092599;28;20024;-79
2021/10/15 05:05:33;;;;;;;38.25;30.20;;;230.40;2252.80;;;;;;5092568;28;20058;-77
2021/10/15 05:07:59;;;;;;;41.63;32.45;;;230.40;2252.80;;;;;;5093532;28;20069;-77
2021/10/15 05:10:28;;;;;;;39.95;30.30;;;230.50;2252.80;;;;;;5092432;28;20031;-77
2021/10/15 05:12:55;;;;;;;33.85;26.33;;;230.40;2252.80;;;;;;5092516;28;20031;-80
2021/10/15 05:15:22;;;;;;;45.55;32.95;;;205.70;2252.80;;;;;;5092127;28;20063;-78
2021/10/15 05:17:48;;;;;;;31.38;23.23;;;230.40;2252.80;;;;;;5092415;28;20032;-77
2021/10/15 05:20:17;;;;;;;31.17;21.58;;;230.50;2252.80;;;;;;5093719;28;20532;-79
2021/10/15 05:22:43;;;;;;;42.50;25.33;;;230.50;2252.80;;;;;;5092225;28;20435;-78
2021/10/15 05:25:11;;;;;;;31.23;22.73;;;230.40;2252.80;;;;;;5092364;28;20034;-80
2021/10/15 05:27:37;;;;;;;24.92;19.20;;;230.40;2252.80;;;;;;5092448;28;20035;-79
2021/10/15 05:30:05;;;;;;;33.33;19.13;;;230.40;2252.80;;;;;;5092165;28;20097;-79
2021/10/15 05:32:31;;;;;;;29.38;18.60;;;230.40;2252.80;;;;;;5092282;28;20030;-78
2021/10/15 05:34:57;;;;;;;19.70;13.23;;;230.50;2252.80;;;;;;5093288;28;20131;-78
2021/10/15 05:37:23;;;;;;;16.38;10.00;;;230.40;2252.80;;;;;;5092169;28;20536;-78
2021/10/15 05:39:49;;;;;;;12.13;9.23;;;230.40;2252.80;;;;;;5092181;28;20028;-78
2021/10/15 05:42:15;;;;;;;17.50;12.65;;;230.40;2252.80;;;;;;5091920;28;20032;-80
2021/10/15 05:44:41;;;;;;;14.32;9.85;;;230.40;2252.80;;;;;;5092183;28;20035;-78
2021/10/15 05:47:07;;;;;;;18.88;12.95;;;230.40;2252.80;;;;;;5092193;28;20020;-78
2021/10/15 05:49:35;;;;;;;19.55;12.68;;;230.50;2252.80;;;;;;5091913;28;20036;-79
2021/10/15 05:52:05;;;;;;;17.77;11.50;;;230.50;2252.80;;;;;;5092194;28;20024;-79
2021/10/15 05:54:43;;;;;;;16.70;11.98;;;230.40;2252.80;;;;;;5092190;28;20118;-78
2021/10/15 06:00:08;;;;;;;21.30;13.43;;;230.50;2252.80;;;;;;5084348;28;20032;-78
2021/10/15 06:02:36;;;;;;;20.30;11.73;;;230.40;2252.80;;;;;;5092694;28;20036;-77
2021/10/15 06:15:33;;;;;;;25.63;17.48;;;230.50;2252.80;;;;;;5097113;28;20439;-78
2021/10/15 06:18:09;;;;;;;19.15;13.85;;;230.50;2252.80;;;;;;5095157;28;20024;-80
2021/10/15 06:20:35;;;;;;;15.73;13.07;;;230.50;2252.80;;;;;;5096732;28;20027;-77
2021/10/15 06:23:01;;;;;;;16.83;12.18;;;230.50;2252.80;;;;;;5095553;28;20047;-77
2021/10/15 06:25:26;;;;;;;22.85;14.10;;;230.50;2252.80;;;;;;5095231;28;20452;-83
2021/10/15 06:27:58;;;;;;;23.50;15.77;;;230.50;2252.80;;;;;;5095410;28;20032;-79
2021/10/15 06:30:24;;;;;;;26.27;17.92;;;230.40;2252.80;;;;;;5095496;28;20032;-78
2021/10/15 06:32:50;;;;;;;23.30;19.25;;;230.40;2252.80;;;;;;5095180;28;20028;-77
2021/10/15 06:35:15;;;;;;;23.35;16.73;;;230.50;2252.80;;;;;;5095136;28;20059;-77
2021/10/15 06:37:41;;;;;;;22.00;16.02;;;230.50;2252.80;;;;;;5095107;28;20024;-78
2021/10/15 06:40:08;;;;;;;21.20;15.73;;;230.50;2252.80;;;;;;5094964;28;20027;-76
2021/10/15 06:42:33;;;;;;;26.10;18.35;;;230.50;2252.80;;;;;;5095061;28;20495;-77
2021/10/15 06:45:00;;;;;;;19.58;14.00;;;230.50;2252.80;;;;;;5096411;28;20028;-79
2021/10/15 06:47:28;;;;;;;22.45;15.15;;;230.60;2252.80;;;;;;5094872;28;20032;-77
2021/10/15 06:49:54;;;;;;;19.45;11.40;;;230.60;2252.80;;;;;;5095081;28;20110;-80
2021/10/15 06:52:21;;;;;;;20.50;10.93;;;230.70;2252.80;;;;;;5094707;28;20030;-76
2021/10/15 06:54:47;;;;;;;17.67;11.70;;;230.70;2252.80;;;;;;5095001;28;20483;-80
2021/10/15 06:57:12;;;;;;;20.00;12.45;;;230.60;2252.80;;;;;;5095810;28;20032;-77
2021/10/15 06:59:39;;;;;;;25.58;15.90;;;230.70;2252.80;;;;;;5094509;28;20034;-76
2021/10/15 07:02:04;;;;;;;20.40;13.50;;;230.70;2252.80;;;;;;5094816;28;20123;-79
2021/10/15 07:04:30;;;;;;;20.58;13.95;;;230.70;2252.80;;;;;;5095712;28;20099;-79
2021/10/15 07:06:57;;;;;;;21.20;14.15;;;230.70;2252.80;;;;;;5094493;28;20028;-78
2021/10/15 07:09:22;;;;;;;23.13;14.02;;;230.70;2252.80;;;;;;5096248;28;20077;-79
2021/10/15 07:11:50;;;;;;;24.95;16.33;;;230.70;2252.80;;;;;;5095966;28;20025;-79
2021/10/15 07:14:16;;;;;;;32.38;21.90;;;230.70;2252.80;;;;;;5093395;28;20035;-78
2021/10/15 07:16:42;;;;;;;21.55;14.00;;;230.70;2252.80;;;;;;5094509;28;20028;-80
2021/10/15 07:19:08;;;;;;;28.40;19.40;;;230.80;2252.80;;;;;;5094457;28;20028;-81
2021/10/15 07:21:34;;;;;;;35.13;21.80;;;230.80;2252.80;;;;;;5095407;28;20360;-80
2021/10/15 07:24:00;;;;;;;38.13;26.15;;;230.80;2252.80;;;;;;5094301;28;20050;-81
2021/10/15 07:26:26;;;;;;;28.55;20.83;;;230.80;2252.80;;;;;;5094298;28;20054;-82
2021/10/15 07:28:52;;;;;;;37.22;25.50;;;230.80;2252.80;;;;;;5094005;28;20448;-77
2021/10/15 07:31:18;;;;;;;28.67;20.20;;;230.80;2252.80;;;;;;5095322;28;20024;-76
2021/10/15 07:33:44;;;;;;;19.02;13.32;;;230.90;2252.80;;;;;;5093899;28;20020;-78
2021/10/15 07:36:10;;;;;;;26.15;16.23;;;230.80;2252.80;;;;;;5093853;28;20034;-78
2021/10/15 07:38:37;;;;;;;37.67;16.58;;;230.90;2252.80;;;;;;5094016;28;20039;-79
2021/10/15 07:41:05;;;;;;;51.17;22.35;;;230.90;2252.80;;;;;;5093732;28;20039;-78
2021/10/15 07:43:31;;;;;;;55.33;24.75;;;230.90;2252.80;;;;;;5094990;28;20472;-80
2021/10/15 07:45:56;;;;;;;46.00;25.00;;;230.90;2252.80;;;;;;5094035;28;20115;-78
2021/10/15 07:48:22;;;;;;;35.13;21.20;;;230.90;2252.80;;;;;;5093639;28;20039;-77
2021/10/15 07:50:48;;;;;;;23.70;15.40;;;230.90;2252.80;;;;;;5093868;28;20412;-80
2021/10/15 07:53:14;;;;;;;34.30;22.05;;;230.90;2252.80;;;;;;5093866;28;20031;-80
2021/10/15 07:55:40;;;;;;;35.20;21.55;;;230.80;2252.80;;;;;;5094515;28;20085;-79
2021/10/15 07:58:05;;;;;;;34.53;22.02;;;230.90;2252.80;;;;;;5093600;28;20028;-79
2021/10/15 08:00:32;;;;;;;29.58;20.20;;;230.90;2252.80;;;;;;5093416;28;20027;-81
2021/10/15 08:02:57;;;;;;;18.00;13.07;;;230.90;2252.80;;;;;;5094707;28;20028;-81
2021/10/15 08:05:23;;;;;;;18.17;14.18;;;230.90;2252.80;;;;;;5094766;28;20031;-80
2021/10/15 08:07:49;;;;;;;23.30;15.98;;;230.90;2252.80;;;;;;5093581;28;20165;-80
2021/10/15 08:10:15;;;;;;;34.72;25.05;;;230.90;2252.80;;;;;;5093256;28;20069;-78
2021/10/15 08:12:41;;;;;;;48.50;32.78;;;230.90;2252.80;;;;;;5093443;28;20099;-77
2021/10/15 08:15:10;;;;;;;58.35;36.83;;;230.90;2252.80;;;;;;5093356;28;20057;-80
2021/10/15 08:17:37;;;;;;;26.70;18.35;;;230.90;2252.80;;;;;;5094516;28;20032;-79
2021/10/15 08:20:04;;;;;;;21.10;15.90;;;230.90;2252.80;;;;;;5092286;28;20107;-77
2021/10/15 08:22:30;;;;;;;20.13;13.10;;;230.90;2252.80;;;;;;5092610;28;20028;-78
2021/10/15 08:24:56;;;;;;;19.90;14.20;;;230.90;2252.80;;;;;;5092660;28;20051;-77
2021/10/15 08:27:21;;;;;;;17.58;12.70;;;230.90;2252.80;;;;;;5094043;28;20471;-76
2021/10/15 08:29:47;;;;;;;29.67;18.27;;;231.00;2252.80;;;;;;5094582;28;20049;-76
2021/10/15 08:32:13;;;;;;;37.40;22.45;;;230.90;2252.80;;;;;;5092771;28;20456;-78
2021/10/15 08:34:39;;;;;;;89.60;54.40;;;230.90;2252.80;;;;;;5094073;28;20075;-77
2021/10/15 08:37:05;;;;;;;55.90;37.78;;;231.00;2252.80;;;;;;5092534;28;20460;-77
2021/10/15 08:39:31;;;;;;;47.28;34.10;;;231.00;2252.80;;;;;;5094210;28;20032;-76
2021/10/15 08:41:58;;;;;;;50.83;38.28;;;231.10;2252.80;;;;;;5092872;28;20066;-76
2021/10/15 08:44:33;;;;;;;52.45;37.88;;;231.10;2252.80;;;;;;5092558;28;20081;-76
2021/10/15 08:46:59;;;;;;;39.60;30.70;;;231.10;2252.80;;;;;;5092858;28;20126;-78
2021/10/15 08:49:25;;;;;;;38.45;30.15;;;231.10;2252.80;;;;;;5092918;28;20024;-77
2021/10/15 08:51:52;;;;;;;21.88;18.40;;;231.20;2252.80;;;;;;5093813;28;20499;-76
2021/10/15 08:54:18;;;;;;;17.42;14.70;;;231.20;2252.80;;;;;;5092732;28;20162;-77
2021/10/15 08:56:45;;;;;;;19.85;14.68;;;231.10;2252.80;;;;;;5094014;28;20024;-77
2021/10/15 08:59:15;;;;;;;21.23;15.75;;;231.10;2252.80;;;;;;5092703;28;20470;-79
2021/10/15 09:01:47;;;;;;;25.23;21.08;;;231.10;2252.80;;;;;;5092662;28;20145;-78
2021/10/15 09:04:18;;;;;;;25.58;18.20;;;231.10;2252.80;;;;;;5093892;28;20028;-78
2021/10/15 09:06:49;;;;;;;24.77;17.88;;;231.20;2252.80;;;;;;5092319;28;20464;-77
2021/10/15 09:09:26;;;;;;;29.83;23.25;;;231.10;2252.80;;;;;;5093525;28;20024;-78
2021/10/15 09:12:05;;;;;;;30.00;22.73;;;231.00;2252.80;;;;;;5092569;28;20032;-77
2021/10/15 09:14:32;;;;;;;29.13;21.90;;;231.10;2252.80;;;;;;5093865;28;20078;-77
2021/10/15 09:17:14;;;;;;;29.60;20.17;;;231.00;2252.80;;;;;;5092384;28;20055;-77
2021/10/15 09:19:46;;;;;;;28.98;21.15;;;231.10;2252.80;;;;;;5092191;28;20115;-78
2021/10/15 09:22:28;;;;;;;29.25;21.65;;;231.10;2252.80;;;;;;5093516;28;20020;-80
2021/10/15 09:25:05;;;;;;;26.50;20.33;;;231.10;2252.80;;;;;;5092478;28;20117;-79
2021/10/15 09:27:43;;;;;;;29.95;21.17;;;231.10;2252.80;;;;;;5091800;28;20028;-79
2021/10/15 09:30:11;;;;;;;34.95;24.67;;;231.20;2252.80;;;;;;5093679;28;20020;-77
2021/10/15 09:32:44;;;;;;;38.63;25.70;;;231.20;2252.80;;;;;;5092372;28;20035;-77
2021/10/15 09:35:12;;;;;;;41.22;27.25;;;231.30;2252.80;;;;;;5091684;28;20518;-77
2021/10/15 09:37:41;;;;;;;23.63;15.23;;;231.30;2252.80;;;;;;5092777;28;20039;-78
2021/10/15 09:40:19;;;;;;;24.13;17.75;;;231.20;2252.80;;;;;;5096011;28;20364;-76
2021/10/15 09:42:46;;;;;;;57.03;38.42;;;231.20;2252.80;;;;;;5096389;28;20383;-78
2021/10/15 09:45:17;;;;;;;42.95;31.50;;;231.30;2252.80;;;;;;5096274;28;20060;-76
2021/10/15 09:47:54;;;;;;;33.72;25.48;;;231.30;2252.80;;;;;;5095938;28;20024;-77
2021/10/15 09:50:23;;;;;;;38.78;28.55;;;231.20;2252.80;;;;;;5096274;28;20047;-77
2021/10/15 09:52:55;;;;;;;45.45;31.88;;;231.30;2252.80;;;;;;5096138;28;20119;-79
2021/10/15 09:55:28;;;;;;;49.10;37.97;;;256.00;2252.80;;;;;;5096111;28;20094;-77
2021/10/15 09:57:55;;;;;;;;;;;256.00;2252.80;;;;;;5096496;28;20036;-78
2021/10/15 10:00:31;;;;;;;40.30;30.33;;;256.00;2252.80;;;;;;5096081;28;20378;-79
2021/10/15 10:02:57;;;;;;;63.83;44.25;;;256.00;2252.80;;;;;;5096936;28;20020;-81
2021/10/15 10:05:23;;;;;;;55.65;37.50;;;231.30;2252.80;;;;;;5095832;28;20028;-78
2021/10/15 10:07:53;;;;;;;51.08;36.17;;;256.00;2252.80;;;;;;5097272;28;20028;-81
2021/10/15 10:10:24;;;;;;;36.38;25.23;;;256.00;2252.80;;;;;;5095554;28;20028;-78
2021/10/15 10:12:52;;;;;;;35.25;26.63;;;256.00;2252.80;;;;;;5095817;28;20052;-78
2021/10/15 10:15:23;;;;;;;41.28;29.42;;;256.00;2252.80;;;;;;5095708;28;20028;-82
2021/10/15 10:18:08;;;;;;;108.28;60.85;;;231.30;2252.80;;;;;;5097217;28;20074;-81
2021/10/15 10:20:36;;;;;;;58.60;35.70;;;256.00;2252.80;;;;;;5095931;28;20032;-82
2021/10/15 10:23:12;;;;;;;50.53;35.03;;;256.00;2252.80;;;;;;5095624;28;20459;-81
2021/10/15 10:25:39;;;;;;;48.53;31.73;;;231.30;2252.80;;;;;;5096079;28;20454;-82
2021/10/15 10:28:13;;;;;;;50.35;36.15;;;231.30;2252.80;;;;;;5097061;28;20024;-82
2021/10/15 10:30:43;;;;;;;47.22;35.85;;;231.30;2252.80;;;;;;5095578;28;20119;-83
2021/10/15 10:33:09;;;;;;;44.70;33.38;;;256.00;2252.80;;;;;;5095830;28;20024;-82
2021/10/15 10:35:36;;;;;;;50.90;36.28;;;231.20;2252.80;;;;;;5095658;28;20135;-82
2021/10/15 10:38:21;;;;;;;55.03;43.47;;;256.00;2252.80;;;;;;5096157;28;20115;-83
2021/10/15 10:41:02;;;;;;;40.25;29.85;;;231.30;2252.80;;;;;;5095520;28;20032;-82
2021/10/15 10:43:29;;;;;;;44.28;34.05;;;256.00;2252.80;;;;;;5095266;28;20139;-79
2021/10/15 10:46:16;;;;;;;66.20;48.75;;;256.00;2252.80;;;;;;5095405;28;20032;-80
2021/10/15 10:48:52;;;;;;;64.13;43.72;;;231.30;2252.80;;;;;;5094773;28;20038;-81
2021/10/15 10:51:17;;;;;;;92.45;61.83;;;256.00;2252.80;;;;;;5094407;28;20031;-82
2021/10/15 10:54:03;;;;;;;47.75;37.33;;;256.00;2252.80;;;;;;5095057;28;20024;-76
2021/10/15 10:56:51;;;;;;;58.35;46.83;;;256.10;2252.80;;;;;;5095067;28;20386;-79
2021/10/15 10:59:17;;;;;;;47.17;42.35;;;256.10;2252.80;;;;;;5095995;28;20032;-80
2021/10/15 11:01:50;;;;;;;48.63;42.47;;;256.00;2252.80;;;;;;5095033;28;20426;-77
2021/10/15 11:04:26;;;;;;;;;;;256.00;2252.80;;;;;;5094884;28;20031;-77
2021/10/15 11:07:03;;;;;;;40.38;35.55;;;256.00;2252.80;;;;;;5094648;28;20373;-76
2021/10/15 11:09:36;;;;;;;42.45;38.00;;;231.30;2252.80;;;;;;5094696;28;20024;-76
2021/10/15 11:12:02;;;;;;;46.00;41.08;;;231.30;2252.80;;;;;;5094372;28;20032;-77
2021/10/15 11:14:46;;;;;;;49.60;44.40;;;256.00;2252.80;;;;;;5095946;28;20028;-75
2021/10/15 11:17:13;;;;;;;50.67;42.13;;;231.30;2252.80;;;;;;5095376;28;20020;-77
2021/10/15 11:19:39;;;;;;;49.17;41.85;;;256.30;2252.80;;;;;;5095503;28;20058;-75
2021/10/15 11:22:05;;;;;;;41.80;32.97;;;256.00;2252.80;;;;;;5095628;28;20051;-76
2021/10/15 11:24:31;;;;;;;40.40;32.90;;;231.30;2252.80;;;;;;5094360;28;20380;-78
2021/10/15 11:26:57;;;;;;;58.83;45.58;;;256.00;2252.80;;;;;;5094132;28;20028;-76
2021/10/15 11:29:23;;;;;;;61.97;47.70;;;231.30;2252.80;;;;;;5094120;28;20525;-76
2021/10/15 11:31:56;;;;;;;48.20;37.70;;;256.00;2252.80;;;;;;5094193;28;20024;-75
2021/10/15 11:34:23;;;;;;;47.88;37.95;;;256.00;2252.80;;;;;;5094015;28;20048;-77
2021/10/15 11:37:05;;;;;;;53.00;41.20;;;256.00;2252.80;;;;;;5095353;28;20020;-76
2021/10/15 11:39:31;;;;;;;44.90;35.40;;;256.00;2252.80;;;;;;5095284;28;20352;-78
2021/10/15 11:41:57;;;;;;;36.38;29.35;;;256.00;2252.80;;;;;;5093970;28;20411;-78
2021/10/15 11:44:34;;;;;;;38.47;30.60;;;256.10;2252.80;;;;;;5094125;28;20020;-76
2021/10/15 11:47:00;;;;;;;53.58;38.92;;;256.00;2252.80;;;;;;5093434;28;20051;-79
2021/10/15 11:49:35;;;;;;;48.47;38.38;;;256.00;2252.80;;;;;;5092511;28;20515;-78
2021/10/15 11:52:00;;;;;;;45.38;35.50;;;256.00;2252.80;;;;;;5094535;28;20028;-78
2021/10/15 11:54:26;;;;;;;36.08;29.65;;;231.30;2252.80;;;;;;5094562;28;20077;-77
2021/10/15 11:56:52;;;;;;;33.85;26.88;;;231.20;2252.80;;;;;;5093680;28;20024;-78
2021/10/15 11:59:25;;;;;;;91.63;73.68;;;231.30;2252.80;;;;;;5094160;28;20067;-77
2021/10/15 12:01:50;;;;;;;;;;;231.30;2252.80;;;;;;5092822;28;20376;-79
2021/10/15 12:04:16;;;;;;;67.38;54.55;;;256.00;2252.80;;;;;;5093223;28;19911;-78
2021/10/15 12:06:51;;;;;;;60.22;43.03;;;231.30;2252.80;;;;;;5093513;28;20024;-79
2021/10/15 12:09:19;;;;;;;49.40;35.83;;;231.20;2252.80;;;;;;5093279;28;20466;-77
2021/10/15 12:11:47;;;;;;;45.40;35.00;;;231.30;2252.80;;;;;;5094786;28;20036;-77
2021/10/15 12:14:20;;;;;;;50.50;39.25;;;231.30;2252.80;;;;;;5094131;28;20023;-76
2021/10/15 12:16:54;;;;;;;50.20;36.05;;;231.30;2252.80;;;;;;5094695;28;20024;-79
2021/10/15 12:19:35;;;;;;;53.08;35.53;;;231.30;2252.80;;;;;;5093246;28;20031;-78